sensor_id;sensor_type;location;lat;lon;timestamp;temperature;humidity
36442;DHT22;64346;50.820;16.274;2023-04-25T00:02:11;9.80;99.90
36442;DHT22;64346;50.820;16.274;2023-04-25T00:04:43;9.80;99.90
36442;DHT22;64346;50.820;16.274;2023-04-25T00:07:13;9.70;99.90
36442;DHT22;64346;50.820;16.274;2023-04-25T00:09:41;9.70;99.90
36442;DHT22;64346;50.820;16.274;2023-04-25T00:12:08;9.70;99.90
36442;DHT22;64346;50.820;16.274;2023-04-25T00:14:35;9.60;99.90
36442;DHT22;64346;50.820;16.274;2023-04-25T00:17:05;9.60;99.90
36442;DHT22;64346;50.820;16.274;2023-04-25T00:19:32;9.60;99.90
36442;DHT22;64346;50.820;16.274;2023-04-25T00:21:59;9.60;99.90
36442;DHT22;64346;50.820;16.274;2023-04-25T00:24:29;9.50;99.90
36442;DHT22;64346;50.820;16.274;2023-04-25T00:26:56;9.50;99.90
36442;DHT22;64346;50.820;16.274;2023-04-25T00:29:23;9.50;99.90
36442;DHT22;64346;50.820;16.274;2023-04-25T00:31:51;9.50;99.90
36442;DHT22;64346;50.820;16.274;2023-04-25T00:34:20;9.40;99.90
36442;DHT22;64346;50.820;16.274;2023-04-25T00:36:48;9.40;99.90
36442;DHT22;64346;50.820;16.274;2023-04-25T00:39:15;9.40;99.90
36442;DHT22;64346;50.820;16.274;2023-04-25T00:41:42;9.40;99.90
36442;DHT22;64346;50.820;16.274;2023-04-25T00:44:10;9.40;99.90
36442;DHT22;64346;50.820;16.274;2023-04-25T00:46:38;9.30;99.90
36442;DHT22;64346;50.820;16.274;2023-04-25T00:49:06;9.30;99.90
36442;DHT22;64346;50.820;16.274;2023-04-25T00:51:33;9.30;99.90
36442;DHT22;64346;50.820;16.274;2023-04-25T00:54:01;9.30;99.90
36442;DHT22;64346;50.820;16.274;2023-04-25T00:56:28;9.30;99.90
36442;DHT22;64346;50.820;16.274;2023-04-25T00:58:56;9.30;99.90
36442;DHT22;64346;50.820;16.274;2023-04-25T01:01:24;9.20;99.90
36442;DHT22;64346;50.820;16.274;2023-04-25T01:03:52;9.20;99.90
36442;DHT22;64346;50.820;16.274;2023-04-25T01:06:21;9.10;99.90
36442;DHT22;64346;50.820;16.274;2023-04-25T01:08:49;9.20;99.90
36442;DHT22;64346;50.820;16.274;2023-04-25T01:11:17;9.10;99.90
36442;DHT22;64346;50.820;16.274;2023-04-25T01:13:44;9.10;99.90
36442;DHT22;64346;50.820;16.274;2023-04-25T01:16:11;9.10;99.90
36442;DHT22;64346;50.820;16.274;2023-04-25T01:18:39;9.10;99.90
36442;DHT22;64346;50.820;16.274;2023-04-25T01:21:13;9.10;99.90
36442;DHT22;64346;50.820;16.274;2023-04-25T01:23:41;9.00;99.90
36442;DHT22;64346;50.820;16.274;2023-04-25T01:26:10;9.00;99.90
36442;DHT22;64346;50.820;16.274;2023-04-25T01:28:39;9.00;99.90
36442;DHT22;64346;50.820;16.274;2023-04-25T01:31:09;9.00;99.90
36442;DHT22;64346;50.820;16.274;2023-04-25T01:33:37;9.00;99.90
36442;DHT22;64346;50.820;16.274;2023-04-25T01:36:05;9.00;99.90
36442;DHT22;64346;50.820;16.274;2023-04-25T01:38:33;8.90;99.90
36442;DHT22;64346;50.820;16.274;2023-04-25T01:41:03;8.90;99.90
36442;DHT22;64346;50.820;16.274;2023-04-25T01:43:30;8.90;99.90
36442;DHT22;64346;50.820;16.274;2023-04-25T01:45:58;8.90;99.90
36442;DHT22;64346;50.820;16.274;2023-04-25T01:48:25;8.80;99.90
36442;DHT22;64346;50.820;16.274;2023-04-25T01:50:53;8.80;99.90
36442;DHT22;64346;50.820;16.274;2023-04-25T01:53:20;8.80;99.90
36442;DHT22;64346;50.820;16.274;2023-04-25T01:55:47;8.80;99.90
36442;DHT22;64346;50.820;16.274;2023-04-25T01:58:14;8.80;99.90
36442;DHT22;64346;50.820;16.274;2023-04-25T02:00:41;8.70;99.90
36442;DHT22;64346;50.820;16.274;2023-04-25T02:03:11;8.70;99.90
36442;DHT22;64346;50.820;16.274;2023-04-25T02:05:39;8.70;99.90
36442;DHT22;64346;50.820;16.274;2023-04-25T02:08:07;8.70;99.90
36442;DHT22;64346;50.820;16.274;2023-04-25T02:10:38;8.70;99.90
36442;DHT22;64346;50.820;16.274;2023-04-25T02:13:05;8.60;99.90
36442;DHT22;64346;50.820;16.274;2023-04-25T02:15:33;8.60;99.90
36442;DHT22;64346;50.820;16.274;2023-04-25T02:18:01;8.60;99.90
36442;DHT22;64346;50.820;16.274;2023-04-25T02:20:29;8.60;99.90
36442;DHT22;64346;50.820;16.274;2023-04-25T02:22:59;8.60;99.90
36442;DHT22;64346;50.820;16.274;2023-04-25T02:25:27;8.60;99.90
36442;DHT22;64346;50.820;16.274;2023-04-25T02:27:54;8.60;99.90
36442;DHT22;64346;50.820;16.274;2023-04-25T02:30:23;8.60;99.90
36442;DHT22;64346;50.820;16.274;2023-04-25T02:32:50;8.60;99.90
36442;DHT22;64346;50.820;16.274;2023-04-25T02:35:18;8.60;99.90
36442;DHT22;64346;50.820;16.274;2023-04-25T02:37:45;8.60;99.90
36442;DHT22;64346;50.820;16.274;2023-04-25T02:40:15;8.60;99.90
36442;DHT22;64346;50.820;16.274;2023-04-25T02:42:42;8.60;99.90
36442;DHT22;64346;50.820;16.274;2023-04-25T02:45:09;8.60;99.90
36442;DHT22;64346;50.820;16.274;2023-04-25T02:47:39;8.60;99.90
36442;DHT22;64346;50.820;16.274;2023-04-25T02:50:07;8.60;99.90
36442;DHT22;64346;50.820;16.274;2023-04-25T02:52:38;8.60;99.90
36442;DHT22;64346;50.820;16.274;2023-04-25T02:55:06;8.60;99.90
36442;DHT22;64346;50.820;16.274;2023-04-25T02:57:33;8.60;99.90
36442;DHT22;64346;50.820;16.274;2023-04-25T03:00:00;8.60;99.90
36442;DHT22;64346;50.820;16.274;2023-04-25T03:02:27;8.60;99.90
36442;DHT22;64346;50.820;16.274;2023-04-25T03:04:55;8.60;99.90
36442;DHT22;64346;50.820;16.274;2023-04-25T03:07:22;8.60;99.90
36442;DHT22;64346;50.820;16.274;2023-04-25T03:09:50;8.50;99.90
36442;DHT22;64346;50.820;16.274;2023-04-25T03:12:17;8.50;99.90
36442;DHT22;64346;50.820;16.274;2023-04-25T03:14:44;8.50;99.90
36442;DHT22;64346;50.820;16.274;2023-04-25T03:17:14;8.50;99.90
36442;DHT22;64346;50.820;16.274;2023-04-25T03:19:41;8.50;99.90
36442;DHT22;64346;50.820;16.274;2023-04-25T03:22:11;8.50;99.90
36442;DHT22;64346;50.820;16.274;2023-04-25T03:24:38;8.50;99.90
36442;DHT22;64346;50.820;16.274;2023-04-25T03:27:05;8.40;99.90
36442;DHT22;64346;50.820;16.274;2023-04-25T03:29:35;8.40;99.90
36442;DHT22;64346;50.820;16.274;2023-04-25T03:32:02;8.40;99.90
36442;DHT22;64346;50.820;16.274;2023-04-25T03:34:30;8.40;99.90
36442;DHT22;64346;50.820;16.274;2023-04-25T03:36:59;8.40;99.90
36442;DHT22;64346;50.820;16.274;2023-04-25T03:39:29;8.40;99.90
36442;DHT22;64346;50.820;16.274;2023-04-25T03:41:56;8.40;99.90
36442;DHT22;64346;50.820;16.274;2023-04-25T03:44:23;8.50;99.90
36442;DHT22;64346;50.820;16.274;2023-04-25T03:46:50;8.50;99.90
36442;DHT22;64346;50.820;16.274;2023-04-25T03:49:18;8.50;99.90
36442;DHT22;64346;50.820;16.274;2023-04-25T03:51:45;8.50;99.90
36442;DHT22;64346;50.820;16.274;2023-04-25T03:54:12;8.50;99.90
36442;DHT22;64346;50.820;16.274;2023-04-25T03:56:39;8.50;99.90
36442;DHT22;64346;50.820;16.274;2023-04-25T03:59:07;8.50;99.90
36442;DHT22;64346;50.820;16.274;2023-04-25T04:01:36;8.50;99.90
36442;DHT22;64346;50.820;16.274;2023-04-25T04:04:06;8.50;99.90
36442;DHT22;64346;50.820;16.274;2023-04-25T04:06:33;8.50;99.90
36442;DHT22;64346;50.820;16.274;2023-04-25T04:09:03;8.50;99.90
36442;DHT22;64346;50.820;16.274;2023-04-25T04:11:30;8.50;99.90
36442;DHT22;64346;50.820;16.274;2023-04-25T04:13:58;8.50;99.90
36442;DHT22;64346;50.820;16.274;2023-04-25T04:16:25;8.60;99.90
36442;DHT22;64346;50.820;16.274;2023-04-25T04:18:52;8.60;99.90
36442;DHT22;64346;50.820;16.274;2023-04-25T04:21:22;8.60;99.90
36442;DHT22;64346;50.820;16.274;2023-04-25T04:23:49;8.60;99.90
36442;DHT22;64346;50.820;16.274;2023-04-25T04:26:19;8.70;99.90
36442;DHT22;64346;50.820;16.274;2023-04-25T04:28:49;8.70;99.90
36442;DHT22;64346;50.820;16.274;2023-04-25T04:31:16;8.70;99.90
36442;DHT22;64346;50.820;16.274;2023-04-25T04:33:44;8.70;99.90
36442;DHT22;64346;50.820;16.274;2023-04-25T04:36:11;8.70;99.90
36442;DHT22;64346;50.820;16.274;2023-04-25T04:38:41;8.80;99.90
36442;DHT22;64346;50.820;16.274;2023-04-25T04:41:08;8.80;99.90
36442;DHT22;64346;50.820;16.274;2023-04-25T04:43:36;8.80;99.90
36442;DHT22;64346;50.820;16.274;2023-04-25T04:46:03;8.80;99.90
36442;DHT22;64346;50.820;16.274;2023-04-25T04:48:36;8.80;99.90
36442;DHT22;64346;50.820;16.274;2023-04-25T04:51:05;8.80;99.90
36442;DHT22;64346;50.820;16.274;2023-04-25T04:53:33;8.90;99.90
36442;DHT22;64346;50.820;16.274;2023-04-25T04:56:00;8.90;99.90
36442;DHT22;64346;50.820;16.274;2023-04-25T04:58:29;8.90;99.90
36442;DHT22;64346;50.820;16.274;2023-04-25T05:00:57;8.90;99.90
36442;DHT22;64346;50.820;16.274;2023-04-25T05:03:24;9.00;99.90
36442;DHT22;64346;50.820;16.274;2023-04-25T05:05:55;9.20;99.90
36442;DHT22;64346;50.820;16.274;2023-04-25T05:08:22;9.30;99.90
36442;DHT22;64346;50.820;16.274;2023-04-25T05:10:49;9.40;99.90
36442;DHT22;64346;50.820;16.274;2023-04-25T05:13:16;9.60;99.90
36442;DHT22;64346;50.820;16.274;2023-04-25T05:15:44;9.60;99.90
36442;DHT22;64346;50.820;16.274;2023-04-25T05:18:14;9.80;99.90
36442;DHT22;64346;50.820;16.274;2023-04-25T05:20:41;10.00;99.90
36442;DHT22;64346;50.820;16.274;2023-04-25T05:23:08;10.20;99.90
36442;DHT22;64346;50.820;16.274;2023-04-25T05:25:38;10.40;99.90
36442;DHT22;64346;50.820;16.274;2023-04-25T05:28:05;10.60;99.90
36442;DHT22;64346;50.820;16.274;2023-04-25T05:30:34;10.90;99.90
36442;DHT22;64346;50.820;16.274;2023-04-25T05:33:01;11.10;99.90
36442;DHT22;64346;50.820;16.274;2023-04-25T05:35:28;11.30;99.90
36442;DHT22;64346;50.820;16.274;2023-04-25T05:37:56;11.40;99.90
36442;DHT22;64346;50.820;16.274;2023-04-25T05:40:23;11.60;99.90
36442;DHT22;64346;50.820;16.274;2023-04-25T05:42:51;11.70;99.90
36442;DHT22;64346;50.820;16.274;2023-04-25T05:45:18;12.00;99.90
36442;DHT22;64346;50.820;16.274;2023-04-25T05:47:45;12.20;99.90
36442;DHT22;64346;50.820;16.274;2023-04-25T05:50:15;12.70;99.90
36442;DHT22;64346;50.820;16.274;2023-04-25T05:52:42;13.60;99.90
36442;DHT22;64346;50.820;16.274;2023-04-25T05:55:09;15.10;99.90
36442;DHT22;64346;50.820;16.274;2023-04-25T05:57:39;16.80;99.90
36442;DHT22;64346;50.820;16.274;2023-04-25T06:00:07;18.50;98.00
36442;DHT22;64346;50.820;16.274;2023-04-25T06:02:35;20.00;93.40
36442;DHT22;64346;50.820;16.274;2023-04-25T06:05:02;21.00;90.00
36442;DHT22;64346;50.820;16.274;2023-04-25T06:07:30;20.60;86.50
36442;DHT22;64346;50.820;16.274;2023-04-25T06:09:57;20.00;86.00
36442;DHT22;64346;50.820;16.274;2023-04-25T06:12:29;19.70;86.50
36442;DHT22;64346;50.820;16.274;2023-04-25T06:14:59;19.60;86.00
36442;DHT22;64346;50.820;16.274;2023-04-25T06:17:26;19.40;86.20
36442;DHT22;64346;50.820;16.274;2023-04-25T06:19:53;19.80;85.60
36442;DHT22;64346;50.820;16.274;2023-04-25T06:22:23;20.10;83.60
36442;DHT22;64346;50.820;16.274;2023-04-25T06:24:52;20.40;82.40
36442;DHT22;64346;50.820;16.274;2023-04-25T06:27:20;20.50;82.20
36442;DHT22;64346;50.820;16.274;2023-04-25T06:29:51;20.20;81.00
36442;DHT22;64346;50.820;16.274;2023-04-25T06:32:19;19.80;81.70
36442;DHT22;64346;50.820;16.274;2023-04-25T06:34:48;19.60;81.80
36442;DHT22;64346;50.820;16.274;2023-04-25T06:37:18;19.50;82.20
36442;DHT22;64346;50.820;16.274;2023-04-25T06:39:45;19.20;82.00
36442;DHT22;64346;50.820;16.274;2023-04-25T06:42:15;19.00;82.60
36442;DHT22;64346;50.820;16.274;2023-04-25T06:44:42;18.90;81.60
36442;DHT22;64346;50.820;16.274;2023-04-25T06:47:10;19.20;82.10
36442;DHT22;64346;50.820;16.274;2023-04-25T06:49:37;19.80;81.00
36442;DHT22;64346;50.820;16.274;2023-04-25T06:52:07;20.40;79.50
36442;DHT22;64346;50.820;16.274;2023-04-25T06:54:34;20.00;77.50
36442;DHT22;64346;50.820;16.274;2023-04-25T06:57:04;19.50;79.00
36442;DHT22;64346;50.820;16.274;2023-04-25T06:59:34;18.90;79.70
36442;DHT22;64346;50.820;16.274;2023-04-25T07:02:01;18.60;80.10
36442;DHT22;64346;50.820;16.274;2023-04-25T07:04:28;18.30;81.70
36442;DHT22;64346;50.820;16.274;2023-04-25T07:06:58;18.20;82.00
36442;DHT22;64346;50.820;16.274;2023-04-25T07:09:25;18.30;82.50
36442;DHT22;64346;50.820;16.274;2023-04-25T07:11:53;18.40;81.80
36442;DHT22;64346;50.820;16.274;2023-04-25T07:14:20;18.30;81.60
36442;DHT22;64346;50.820;16.274;2023-04-25T07:16:47;18.60;81.40
36442;DHT22;64346;50.820;16.274;2023-04-25T07:19:17;19.40;78.90
36442;DHT22;64346;50.820;16.274;2023-04-25T07:21:47;20.40;77.50
36442;DHT22;64346;50.820;16.274;2023-04-25T07:24:17;21.20;75.00
36442;DHT22;64346;50.820;16.274;2023-04-25T07:26:44;21.80;74.60
36442;DHT22;64346;50.820;16.274;2023-04-25T07:29:14;23.10;72.20
36442;DHT22;64346;50.820;16.274;2023-04-25T07:31:44;25.50;69.00
36442;DHT22;64346;50.820;16.274;2023-04-25T07:34:11;28.40;64.20
36442;DHT22;64346;50.820;16.274;2023-04-25T07:36:40;30.30;58.30
36442;DHT22;64346;50.820;16.274;2023-04-25T07:39:10;30.90;54.30
36442;DHT22;64346;50.820;16.274;2023-04-25T07:41:38;31.30;51.20
36442;DHT22;64346;50.820;16.274;2023-04-25T07:44:05;29.80;51.10
36442;DHT22;64346;50.820;16.274;2023-04-25T07:46:32;30.20;50.20
36442;DHT22;64346;50.820;16.274;2023-04-25T07:48:59;29.10;50.90
36442;DHT22;64346;50.820;16.274;2023-04-25T07:51:27;28.10;52.50
36442;DHT22;64346;50.820;16.274;2023-04-25T07:53:54;30.20;51.60
36442;DHT22;64346;50.820;16.274;2023-04-25T07:56:22;33.20;49.00
36442;DHT22;64346;50.820;16.274;2023-04-25T07:58:49;35.70;46.20
36442;DHT22;64346;50.820;16.274;2023-04-25T08:01:21;36.20;43.50
36442;DHT22;64346;50.820;16.274;2023-04-25T08:03:49;36.80;42.70
36442;DHT22;64346;50.820;16.274;2023-04-25T08:06:17;38.20;41.00
36442;DHT22;64346;50.820;16.274;2023-04-25T08:08:46;38.10;40.20
36442;DHT22;64346;50.820;16.274;2023-04-25T08:11:14;36.60;39.30
36442;DHT22;64346;50.820;16.274;2023-04-25T08:13:44;34.90;41.00
36442;DHT22;64346;50.820;16.274;2023-04-25T08:16:13;34.10;41.70
36442;DHT22;64346;50.820;16.274;2023-04-25T08:18:41;34.80;41.60
36442;DHT22;64346;50.820;16.274;2023-04-25T08:21:08;35.20;41.20
36442;DHT22;64346;50.820;16.274;2023-04-25T08:23:36;36.30;40.40
36442;DHT22;64346;50.820;16.274;2023-04-25T08:26:05;37.20;39.50
36442;DHT22;64346;50.820;16.274;2023-04-25T08:28:33;39.00;39.30
36442;DHT22;64346;50.820;16.274;2023-04-25T08:31:03;40.50;37.90
36442;DHT22;64346;50.820;16.274;2023-04-25T08:33:30;40.80;36.20
36442;DHT22;64346;50.820;16.274;2023-04-25T08:36:00;40.40;36.30
36442;DHT22;64346;50.820;16.274;2023-04-25T08:38:27;38.30;36.40
36442;DHT22;64346;50.820;16.274;2023-04-25T08:40:56;37.80;36.30
36442;DHT22;64346;50.820;16.274;2023-04-25T08:43:25;38.30;37.00
36442;DHT22;64346;50.820;16.274;2023-04-25T08:45:56;39.20;36.20
36442;DHT22;64346;50.820;16.274;2023-04-25T08:48:27;37.60;35.90
36442;DHT22;64346;50.820;16.274;2023-04-25T08:50:57;34.80;37.80
36442;DHT22;64346;50.820;16.274;2023-04-25T08:53:31;33.90;38.30
36442;DHT22;64346;50.820;16.274;2023-04-25T08:56:01;35.00;38.50
36442;DHT22;64346;50.820;16.274;2023-04-25T08:58:29;36.80;37.80
36442;DHT22;64346;50.820;16.274;2023-04-25T09:00:56;38.10;36.40
36442;DHT22;64346;50.820;16.274;2023-04-25T09:03:23;38.60;36.00
36442;DHT22;64346;50.820;16.274;2023-04-25T09:05:51;39.40;36.10
36442;DHT22;64346;50.820;16.274;2023-04-25T09:08:19;40.40;35.30
36442;DHT22;64346;50.820;16.274;2023-04-25T09:10:51;41.50;35.00
36442;DHT22;64346;50.820;16.274;2023-04-25T09:13:25;42.20;34.40
36442;DHT22;64346;50.820;16.274;2023-04-25T09:15:57;42.60;33.90
36442;DHT22;64346;50.820;16.274;2023-04-25T09:18:31;42.70;33.20
36442;DHT22;64346;50.820;16.274;2023-04-25T09:26:39;41.20;33.40
36442;DHT22;64346;50.820;16.274;2023-04-25T09:29:07;39.10;34.30
36442;DHT22;64346;50.820;16.274;2023-04-25T09:31:37;39.00;34.80
36442;DHT22;64346;50.820;16.274;2023-04-25T09:34:05;39.20;34.40
36442;DHT22;64346;50.820;16.274;2023-04-25T09:36:34;39.60;34.30
36442;DHT22;64346;50.820;16.274;2023-04-25T09:39:02;38.80;34.10
36442;DHT22;64346;50.820;16.274;2023-04-25T09:41:32;36.00;35.50
36442;DHT22;64346;50.820;16.274;2023-04-25T09:44:06;33.70;36.30
36442;DHT22;64346;50.820;16.274;2023-04-25T09:46:36;33.20;37.70
36442;DHT22;64346;50.820;16.274;2023-04-25T09:49:07;32.40;37.40
36442;DHT22;64346;50.820;16.274;2023-04-25T09:51:35;30.70;38.80
36442;DHT22;64346;50.820;16.274;2023-04-25T09:54:05;29.70;39.60
36442;DHT22;64346;50.820;16.274;2023-04-25T09:56:35;29.50;40.60
36442;DHT22;64346;50.820;16.274;2023-04-25T09:59:06;30.30;40.30
36442;DHT22;64346;50.820;16.274;2023-04-25T10:01:34;30.80;39.30
36442;DHT22;64346;50.820;16.274;2023-04-25T10:04:06;30.90;39.10
36442;DHT22;64346;50.820;16.274;2023-04-25T10:06:37;30.10;39.60
36442;DHT22;64346;50.820;16.274;2023-04-25T10:09:05;29.10;40.30
36442;DHT22;64346;50.820;16.274;2023-04-25T10:11:34;28.10;40.90
36442;DHT22;64346;50.820;16.274;2023-04-25T10:14:02;27.10;41.90
36442;DHT22;64346;50.820;16.274;2023-04-25T10:16:30;25.80;43.10
36442;DHT22;64346;50.820;16.274;2023-04-25T10:19:00;24.90;43.80
36442;DHT22;64346;50.820;16.274;2023-04-25T10:21:28;24.00;45.30
36442;DHT22;64346;50.820;16.274;2023-04-25T10:24:01;23.40;45.10
36442;DHT22;64346;50.820;16.274;2023-04-25T10:26:29;22.70;46.30
36442;DHT22;64346;50.820;16.274;2023-04-25T10:28:59;22.20;46.30
36442;DHT22;64346;50.820;16.274;2023-04-25T10:31:29;21.90;47.20
36442;DHT22;64346;50.820;16.274;2023-04-25T10:33:57;21.60;47.60
36442;DHT22;64346;50.820;16.274;2023-04-25T10:36:31;21.50;49.00
36442;DHT22;64346;50.820;16.274;2023-04-25T10:39:04;21.40;47.90
36442;DHT22;64346;50.820;16.274;2023-04-25T10:41:46;21.20;48.80
36442;DHT22;64346;50.820;16.274;2023-04-25T10:44:14;21.00;48.50
36442;DHT22;64346;50.820;16.274;2023-04-25T10:46:41;20.70;49.70
36442;DHT22;64346;50.820;16.274;2023-04-25T10:49:27;20.60;49.80
36442;DHT22;64346;50.820;16.274;2023-04-25T10:54:54;20.40;52.00
36442;DHT22;64346;50.820;16.274;2023-04-25T10:59:59;20.30;51.30
36442;DHT22;64346;50.820;16.274;2023-04-25T11:02:29;20.00;51.50
36442;DHT22;64346;50.820;16.274;2023-04-25T11:04:57;19.80;52.60
36442;DHT22;64346;50.820;16.274;2023-04-25T11:07:51;19.90;52.70
36442;DHT22;64346;50.820;16.274;2023-04-25T11:10:33;20.20;51.80
36442;DHT22;64346;50.820;16.274;2023-04-25T11:13:03;20.10;50.70
36442;DHT22;64346;50.820;16.274;2023-04-25T11:15:30;19.80;51.60
36442;DHT22;64346;50.820;16.274;2023-04-25T11:17:57;19.80;52.70
36442;DHT22;64346;50.820;16.274;2023-04-25T11:20:25;19.70;51.90
36442;DHT22;64346;50.820;16.274;2023-04-25T11:22:53;19.20;50.90
36442;DHT22;64346;50.820;16.274;2023-04-25T11:25:23;19.10;51.40
36442;DHT22;64346;50.820;16.274;2023-04-25T11:28:00;19.10;51.20
36442;DHT22;64346;50.820;16.274;2023-04-25T11:30:31;19.00;52.20
36442;DHT22;64346;50.820;16.274;2023-04-25T11:33:00;18.80;53.20
36442;DHT22;64346;50.820;16.274;2023-04-25T11:35:28;18.70;53.90
36442;DHT22;64346;50.820;16.274;2023-04-25T11:37:55;18.40;54.80
36442;DHT22;64346;50.820;16.274;2023-04-25T11:40:22;18.10;55.00
36442;DHT22;64346;50.820;16.274;2023-04-25T11:42:50;17.90;55.70
36442;DHT22;64346;50.820;16.274;2023-04-25T11:45:22;18.00;56.10
36442;DHT22;64346;50.820;16.274;2023-04-25T11:47:52;17.90;55.10
36442;DHT22;64346;50.820;16.274;2023-04-25T11:50:20;17.80;55.20
36442;DHT22;64346;50.820;16.274;2023-04-25T11:52:48;17.70;55.70
36442;DHT22;64346;50.820;16.274;2023-04-25T11:55:18;17.60;55.80
36442;DHT22;64346;50.820;16.274;2023-04-25T11:57:48;17.70;56.00
36442;DHT22;64346;50.820;16.274;2023-04-25T12:00:18;17.60;56.10
36442;DHT22;64346;50.820;16.274;2023-04-25T12:02:55;17.60;57.10
36442;DHT22;64346;50.820;16.274;2023-04-25T12:05:27;17.60;56.30
36442;DHT22;64346;50.820;16.274;2023-04-25T12:08:12;17.60;56.60
36442;DHT22;64346;50.820;16.274;2023-04-25T12:10:44;17.60;57.10
36442;DHT22;64346;50.820;16.274;2023-04-25T12:13:22;17.70;56.80
36442;DHT22;64346;50.820;16.274;2023-04-25T12:15:50;17.80;56.20
36442;DHT22;64346;50.820;16.274;2023-04-25T12:18:22;17.80;56.00
36442;DHT22;64346;50.820;16.274;2023-04-25T12:20:50;17.70;55.80
36442;DHT22;64346;50.820;16.274;2023-04-25T12:23:28;17.50;55.70
36442;DHT22;64346;50.820;16.274;2023-04-25T12:25:58;17.10;55.40
36442;DHT22;64346;50.820;16.274;2023-04-25T12:28:25;16.90;55.90
36442;DHT22;64346;50.820;16.274;2023-04-25T12:31:06;16.90;56.30
36442;DHT22;64346;50.820;16.274;2023-04-25T12:33:35;16.80;57.20
36442;DHT22;64346;50.820;16.274;2023-04-25T12:36:06;16.70;57.10
36442;DHT22;64346;50.820;16.274;2023-04-25T12:38:36;16.50;57.70
36442;DHT22;64346;50.820;16.274;2023-04-25T12:41:04;16.30;57.90
36442;DHT22;64346;50.820;16.274;2023-04-25T12:43:31;16.20;58.50
36442;DHT22;64346;50.820;16.274;2023-04-25T12:45:59;16.20;57.80
36442;DHT22;64346;50.820;16.274;2023-04-25T12:48:28;16.00;58.10
36442;DHT22;64346;50.820;16.274;2023-04-25T12:50:55;16.00;58.60
36442;DHT22;64346;50.820;16.274;2023-04-25T12:53:23;16.10;58.40
36442;DHT22;64346;50.820;16.274;2023-04-25T12:55:50;16.30;57.40
36442;DHT22;64346;50.820;16.274;2023-04-25T12:58:20;16.40;56.60
36442;DHT22;64346;50.820;16.274;2023-04-25T13:00:47;16.30;57.20
36442;DHT22;64346;50.820;16.274;2023-04-25T13:03:15;16.20;57.20
36442;DHT22;64346;50.820;16.274;2023-04-25T13:05:42;16.10;57.50
36442;DHT22;64346;50.820;16.274;2023-04-25T13:08:09;16.20;57.60
36442;DHT22;64346;50.820;16.274;2023-04-25T13:10:39;16.20;58.20
36442;DHT22;64346;50.820;16.274;2023-04-25T13:13:06;16.20;58.10
36442;DHT22;64346;50.820;16.274;2023-04-25T13:15:36;16.10;58.40
36442;DHT22;64346;50.820;16.274;2023-04-25T13:18:04;16.00;58.20
36442;DHT22;64346;50.820;16.274;2023-04-25T13:20:33;16.10;58.90
36442;DHT22;64346;50.820;16.274;2023-04-25T13:23:03;16.20;58.30
36442;DHT22;64346;50.820;16.274;2023-04-25T13:25:30;16.40;57.80
36442;DHT22;64346;50.820;16.274;2023-04-25T13:27:58;16.40;58.00
36442;DHT22;64346;50.820;16.274;2023-04-25T13:30:25;16.40;57.70
36442;DHT22;64346;50.820;16.274;2023-04-25T13:32:53;16.30;58.80
36442;DHT22;64346;50.820;16.274;2023-04-25T13:35:20;16.20;58.70
36442;DHT22;64346;50.820;16.274;2023-04-25T13:37:47;16.10;58.70
36442;DHT22;64346;50.820;16.274;2023-04-25T13:40:15;16.00;58.90
36442;DHT22;64346;50.820;16.274;2023-04-25T13:42:42;16.00;59.40
36442;DHT22;64346;50.820;16.274;2023-04-25T13:45:09;16.00;59.50
36442;DHT22;64346;50.820;16.274;2023-04-25T13:47:36;16.00;61.30
36442;DHT22;64346;50.820;16.274;2023-04-25T13:50:04;16.00;61.20
36442;DHT22;64346;50.820;16.274;2023-04-25T13:52:32;16.00;61.00
36442;DHT22;64346;50.820;16.274;2023-04-25T13:54:59;16.00;61.20
36442;DHT22;64346;50.820;16.274;2023-04-25T13:57:30;16.00;61.40
36442;DHT22;64346;50.820;16.274;2023-04-25T14:00:00;15.90;61.20
36442;DHT22;64346;50.820;16.274;2023-04-25T14:02:27;15.90;61.70
36442;DHT22;64346;50.820;16.274;2023-04-25T14:04:55;15.80;61.30
36442;DHT22;64346;50.820;16.274;2023-04-25T14:07:22;15.50;60.90
36442;DHT22;64346;50.820;16.274;2023-04-25T14:09:51;15.30;60.90
36442;DHT22;64346;50.820;16.274;2023-04-25T14:12:18;15.10;61.40
36442;DHT22;64346;50.820;16.274;2023-04-25T14:14:46;14.80;61.80
36442;DHT22;64346;50.820;16.274;2023-04-25T14:17:13;14.70;63.20
36442;DHT22;64346;50.820;16.274;2023-04-25T14:19:43;14.70;63.60
36442;DHT22;64346;50.820;16.274;2023-04-25T14:22:12;14.70;64.30
36442;DHT22;64346;50.820;16.274;2023-04-25T14:24:39;14.80;64.80
36442;DHT22;64346;50.820;16.274;2023-04-25T14:27:07;14.80;67.00
36442;DHT22;64346;50.820;16.274;2023-04-25T14:29:34;14.90;65.80
36442;DHT22;64346;50.820;16.274;2023-04-25T14:32:01;15.00;65.90
36442;DHT22;64346;50.820;16.274;2023-04-25T14:34:29;15.10;64.40
36442;DHT22;64346;50.820;16.274;2023-04-25T14:36:56;15.20;64.10
36442;DHT22;64346;50.820;16.274;2023-04-25T14:39:23;15.20;63.00
36442;DHT22;64346;50.820;16.274;2023-04-25T14:41:51;15.10;63.40
36442;DHT22;64346;50.820;16.274;2023-04-25T14:44:18;15.20;63.50
36442;DHT22;64346;50.820;16.274;2023-04-25T14:46:45;15.20;63.10
36442;DHT22;64346;50.820;16.274;2023-04-25T14:49:13;15.10;63.20
36442;DHT22;64346;50.820;16.274;2023-04-25T14:51:40;14.90;63.20
36442;DHT22;64346;50.820;16.274;2023-04-25T14:54:07;15.00;63.30
36442;DHT22;64346;50.820;16.274;2023-04-25T14:56:34;14.90;63.50
36442;DHT22;64346;50.820;16.274;2023-04-25T14:59:04;14.80;63.80
36442;DHT22;64346;50.820;16.274;2023-04-25T15:01:31;14.80;64.00
36442;DHT22;64346;50.820;16.274;2023-04-25T15:04:01;14.70;63.30
36442;DHT22;64346;50.820;16.274;2023-04-25T15:06:29;14.60;63.50
36442;DHT22;64346;50.820;16.274;2023-04-25T15:08:56;14.50;63.60
36442;DHT22;64346;50.820;16.274;2023-04-25T15:11:23;14.50;64.10
36442;DHT22;64346;50.820;16.274;2023-04-25T15:13:50;14.30;68.10
36442;DHT22;64346;50.820;16.274;2023-04-25T15:16:20;13.90;71.50
36442;DHT22;64346;50.820;16.274;2023-04-25T15:18:48;13.60;74.10
36442;DHT22;64346;50.820;16.274;2023-04-25T15:21:15;13.30;75.90
36442;DHT22;64346;50.820;16.274;2023-04-25T15:23:42;13.00;77.60
36442;DHT22;64346;50.820;16.274;2023-04-25T15:26:10;12.60;80.50
36442;DHT22;64346;50.820;16.274;2023-04-25T15:28:37;12.10;82.50
36442;DHT22;64346;50.820;16.274;2023-04-25T15:31:06;11.80;84.60
36442;DHT22;64346;50.820;16.274;2023-04-25T15:33:34;11.50;87.30
36442;DHT22;64346;50.820;16.274;2023-04-25T15:36:01;11.30;90.00
36442;DHT22;64346;50.820;16.274;2023-04-25T15:38:28;11.20;91.30
36442;DHT22;64346;50.820;16.274;2023-04-25T15:41:00;11.10;92.60